createdAt,value
2023-03-19T00:00:49.173Z,0.00
2023-03-19T00:01:49.242Z,0.00
2023-03-19T00:02:49.240Z,0.00
2023-03-19T00:03:49.177Z,0.00
2023-03-19T00:04:49.130Z,0.00
2023-03-19T00:05:49.116Z,0.00
2023-03-19T00:06:49.089Z,0.00
2023-03-19T00:07:49.078Z,0.00
2023-03-19T00:08:49.067Z,0.00
2023-03-19T00:09:49.046Z,0.00
2023-03-19T00:10:49.064Z,0.00
2023-03-19T00:11:49.029Z,0.00
2023-03-19T00:12:49.034Z,0.00
2023-03-19T00:13:49.005Z,0.00
2023-03-19T00:14:48.998Z,0.00
2023-03-19T00:15:49.028Z,0.00
2023-03-19T00:16:49.005Z,0.00
2023-03-19T00:17:48.978Z,0.00
2023-03-19T00:18:48.968Z,0.00
2023-03-19T00:19:48.950Z,0.00
2023-03-19T00:20:48.946Z,0.00
2023-03-19T00:21:48.940Z,0.00
2023-03-19T00:22:48.926Z,0.00
2023-03-19T00:23:48.923Z,0.00
2023-03-19T00:24:48.940Z,0.00
2023-03-19T00:25:48.884Z,0.00
2023-03-19T00:26:48.908Z,0.00
2023-03-19T00:27:48.864Z,0.00
2023-03-19T00:28:48.856Z,0.00
2023-03-19T00:29:48.836Z,0.00
2023-03-19T00:30:48.890Z,0.00
2023-03-19T00:31:48.853Z,0.00
2023-03-19T00:32:48.937Z,0.00
2023-03-19T00:33:48.801Z,0.00
2023-03-19T00:34:48.801Z,0.00
2023-03-19T00:35:48.794Z,0.00
2023-03-19T00:36:48.809Z,0.00
2023-03-19T00:37:48.756Z,0.00
2023-03-19T00:38:48.748Z,0.00
2023-03-19T00:39:48.755Z,0.00
2023-03-19T00:40:48.723Z,0.00
2023-03-19T00:41:48.721Z,0.00
2023-03-19T00:42:48.712Z,0.00
2023-03-19T00:43:48.690Z,0.00
2023-03-19T00:44:48.687Z,0.00
2023-03-19T00:45:48.735Z,0.00
2023-03-19T00:46:48.725Z,0.00
2023-03-19T00:47:48.652Z,0.00
2023-03-19T00:48:48.637Z,0.00
2023-03-19T00:49:48.649Z,0.00
2023-03-19T00:50:48.629Z,0.00
2023-03-19T00:51:48.634Z,0.00
2023-03-19T00:52:48.617Z,0.00
2023-03-19T00:53:48.597Z,0.00
2023-03-19T00:54:48.587Z,0.00
2023-03-19T00:55:48.568Z,0.00
2023-03-19T00:56:48.549Z,0.00
2023-03-19T00:57:48.572Z,0.00
2023-03-19T00:58:48.535Z,0.00
2023-03-19T00:59:48.529Z,0.00
2023-03-19T01:00:48.513Z,0.00
2023-03-19T01:01:48.549Z,0.00
2023-03-19T01:02:48.527Z,0.00
2023-03-19T01:03:48.512Z,0.00
2023-03-19T01:04:48.572Z,0.00
2023-03-19T01:05:53.898Z,0.00
2023-03-19T01:06:48.470Z,0.00
2023-03-19T01:07:48.438Z,0.00
2023-03-19T01:08:48.448Z,0.00
2023-03-19T01:09:48.425Z,0.00
2023-03-19T01:10:48.398Z,0.00
2023-03-19T01:11:48.412Z,0.00
2023-03-19T01:12:48.385Z,0.00
2023-03-19T01:13:48.377Z,0.00
2023-03-19T01:14:48.360Z,0.00
2023-03-19T01:15:48.335Z,0.00
2023-03-19T01:16:48.348Z,0.00
2023-03-19T01:17:48.326Z,0.00
2023-03-19T01:18:48.349Z,0.00
2023-03-19T01:19:48.316Z,0.00
2023-03-19T01:20:48.306Z,0.00
2023-03-19T01:21:48.291Z,0.00
2023-03-19T01:22:48.318Z,0.00
2023-03-19T01:23:48.329Z,0.00
2023-03-19T01:24:48.312Z,0.00
2023-03-19T01:25:48.261Z,0.00
2023-03-19T01:26:48.251Z,0.00
2023-03-19T01:27:48.232Z,0.00
2023-03-19T01:28:48.278Z,0.00
2023-03-19T01:29:48.237Z,0.00
2023-03-19T01:30:48.276Z,0.00
2023-03-19T01:31:48.185Z,0.00
2023-03-19T01:32:48.213Z,0.00
2023-03-19T01:33:48.172Z,0.00
2023-03-19T01:34:48.175Z,0.00
2023-03-19T01:35:48.158Z,0.00
2023-03-19T01:36:48.136Z,0.00
2023-03-19T01:37:48.121Z,0.00
2023-03-19T01:38:48.125Z,0.00
2023-03-19T01:39:48.093Z,0.00
2023-03-19T01:40:48.111Z,0.00
2023-03-19T01:41:48.113Z,0.00
2023-03-19T01:42:48.072Z,0.00
2023-03-19T01:43:48.050Z,0.00
2023-03-19T01:44:48.040Z,0.00
2023-03-19T01:45:50.693Z,0.00
2023-03-19T01:46:48.065Z,0.00
2023-03-19T01:47:48.014Z,0.00
2023-03-19T01:48:48.081Z,0.00
2023-03-19T01:49:47.993Z,0.00
2023-03-19T01:50:47.993Z,0.00
2023-03-19T01:51:48.008Z,0.00
2023-03-19T01:52:47.984Z,0.00
2023-03-19T01:53:47.979Z,0.00
2023-03-19T01:54:47.941Z,0.00
2023-03-19T01:55:47.948Z,0.00
2023-03-19T01:56:47.932Z,0.00
2023-03-19T01:57:47.908Z,0.00
2023-03-19T01:58:47.899Z,0.00
2023-03-19T01:59:47.890Z,0.00
2023-03-19T02:00:47.873Z,0.00
2023-03-19T02:01:47.943Z,0.00
2023-03-19T02:02:47.870Z,0.00
2023-03-19T02:03:47.839Z,0.00
2023-03-19T02:04:47.906Z,0.00
2023-03-19T02:05:47.854Z,0.00
2023-03-19T02:06:47.811Z,0.00
2023-03-19T02:07:47.869Z,0.00
2023-03-19T02:08:47.786Z,0.00
2023-03-19T02:09:47.781Z,0.00
2023-03-19T02:10:47.819Z,0.00
2023-03-19T02:11:47.766Z,0.00
2023-03-19T02:12:47.820Z,0.00
2023-03-19T02:13:47.731Z,0.00
2023-03-19T02:14:47.724Z,0.00
2023-03-19T02:15:47.819Z,0.00
2023-03-19T02:16:47.735Z,0.00
2023-03-19T02:17:47.688Z,0.00
2023-03-19T02:18:47.708Z,0.00
2023-03-19T02:19:47.665Z,0.00
2023-03-19T02:20:47.673Z,0.00
2023-03-19T02:21:47.648Z,0.00
2023-03-19T02:22:47.640Z,0.00
2023-03-19T02:23:47.679Z,0.00
2023-03-19T02:24:47.635Z,0.00
2023-03-19T02:25:47.657Z,0.00
2023-03-19T02:26:47.593Z,0.00
2023-03-19T02:27:47.596Z,0.00
2023-03-19T02:28:47.623Z,0.00
2023-03-19T02:29:49.342Z,0.00
2023-03-19T02:30:47.567Z,0.00
2023-03-19T02:31:47.599Z,0.00
2023-03-19T02:32:47.585Z,0.00
2023-03-19T02:33:47.539Z,0.00
2023-03-19T02:34:47.539Z,0.00
2023-03-19T02:35:47.635Z,0.00
2023-03-19T02:36:47.492Z,0.00
2023-03-19T02:37:47.479Z,0.00
2023-03-19T02:38:47.468Z,0.00
2023-03-19T02:39:47.470Z,0.00
2023-03-19T02:40:47.495Z,0.00
2023-03-19T02:41:47.454Z,0.00
2023-03-19T02:42:47.430Z,0.00
2023-03-19T02:43:47.428Z,0.00
2023-03-19T02:44:47.409Z,0.00
2023-03-19T02:45:47.393Z,0.00
2023-03-19T02:46:47.454Z,0.00
2023-03-19T02:47:47.366Z,0.00
2023-03-19T02:48:47.358Z,0.00
2023-03-19T02:49:47.379Z,0.00
2023-03-19T02:50:47.373Z,0.00
2023-03-19T02:51:47.358Z,0.00
2023-03-19T02:52:47.317Z,0.00
2023-03-19T02:53:47.304Z,0.00
2023-03-19T02:54:47.323Z,0.00
2023-03-19T02:55:47.288Z,0.00
2023-03-19T02:56:47.284Z,0.00
2023-03-19T02:57:47.266Z,0.00
2023-03-19T02:58:47.278Z,0.00
2023-03-19T02:59:47.263Z,0.00
2023-03-19T03:00:47.321Z,0.00
2023-03-19T03:01:47.296Z,0.00
2023-03-19T03:02:47.312Z,0.00
2023-03-19T03:03:47.203Z,0.00
2023-03-19T03:04:47.223Z,0.00
2023-03-19T03:05:47.178Z,0.00
2023-03-19T03:06:47.176Z,0.00
2023-03-19T03:07:47.162Z,0.00
2023-03-19T03:08:47.158Z,0.00
2023-03-19T03:09:47.216Z,0.00
2023-03-19T03:10:47.198Z,0.00
2023-03-19T03:11:47.144Z,0.00
2023-03-19T03:12:47.132Z,0.00
2023-03-19T03:13:47.107Z,0.00
2023-03-19T03:14:47.110Z,0.00
2023-03-19T03:15:47.089Z,0.00
2023-03-19T03:16:47.161Z,0.00
2023-03-19T03:17:47.069Z,0.00
2023-03-19T03:18:47.048Z,0.00
2023-03-19T03:19:47.058Z,0.00
2023-03-19T03:20:47.033Z,0.00
2023-03-19T03:21:47.043Z,0.00
2023-03-19T03:22:47.014Z,0.00
2023-03-19T03:23:46.995Z,0.00
2023-03-19T03:24:47.005Z,0.00
2023-03-19T03:25:47.008Z,0.00
2023-03-19T03:26:46.976Z,0.00
2023-03-19T03:27:46.972Z,0.00
2023-03-19T03:28:46.953Z,0.00
2023-03-19T03:29:46.943Z,0.00
2023-03-19T03:30:46.922Z,0.00
2023-03-19T03:31:46.971Z,0.00
2023-03-19T03:32:46.979Z,0.00
2023-03-19T03:33:46.882Z,0.00
2023-03-19T03:34:46.888Z,0.00
2023-03-19T03:35:46.907Z,0.00
2023-03-19T03:36:46.888Z,0.00
2023-03-19T03:37:46.869Z,0.00
2023-03-19T03:38:46.835Z,0.00
2023-03-19T03:39:46.858Z,0.00
2023-03-19T03:40:46.828Z,0.00
2023-03-19T03:41:46.853Z,0.00
2023-03-19T03:42:46.797Z,0.00
2023-03-19T03:43:46.788Z,0.00
2023-03-19T03:44:46.781Z,0.00
2023-03-19T03:45:46.774Z,0.00
2023-03-19T03:46:46.777Z,0.00
2023-03-19T03:47:46.762Z,0.00
2023-03-19T03:48:46.742Z,0.00
2023-03-19T03:49:46.734Z,0.00
2023-03-19T03:50:46.720Z,0.00
2023-03-19T03:51:46.701Z,0.00
2023-03-19T03:52:46.736Z,0.00
2023-03-19T03:53:46.708Z,0.00
2023-03-19T03:54:46.679Z,0.00
2023-03-19T03:55:46.680Z,0.00
2023-03-19T03:56:46.650Z,0.00
2023-03-19T03:57:46.675Z,0.00
2023-03-19T03:58:46.635Z,0.00
2023-03-19T03:59:46.642Z,0.00
2023-03-19T04:00:46.623Z,0.00
2023-03-19T04:01:46.604Z,0.00
2023-03-19T04:02:46.609Z,0.00
2023-03-19T04:03:46.602Z,0.00
2023-03-19T04:04:46.567Z,0.00
2023-03-19T04:05:46.564Z,0.00
2023-03-19T04:06:46.555Z,0.00
2023-03-19T04:07:46.557Z,0.00
2023-03-19T04:08:46.524Z,0.00
2023-03-19T04:09:46.539Z,0.00
2023-03-19T04:10:46.532Z,0.00
2023-03-19T04:11:46.488Z,0.00
2023-03-19T04:12:46.501Z,0.00
2023-03-19T04:13:46.480Z,0.00
2023-03-19T04:14:46.478Z,0.00
2023-03-19T04:15:46.475Z,0.00
2023-03-19T04:16:46.463Z,0.00
2023-03-19T04:17:46.460Z,0.00
2023-03-19T04:18:46.424Z,0.00
2023-03-19T04:19:46.428Z,0.00
2023-03-19T04:20:46.401Z,0.00
2023-03-19T04:21:46.382Z,0.00
2023-03-19T04:22:46.390Z,0.00
2023-03-19T04:23:46.364Z,0.00
2023-03-19T04:24:46.396Z,0.00
2023-03-19T04:25:46.345Z,0.00
2023-03-19T04:26:46.335Z,0.00
2023-03-19T04:27:46.326Z,0.00
2023-03-19T04:28:46.323Z,0.00
2023-03-19T04:29:46.316Z,0.00
2023-03-19T04:30:46.417Z,0.00
2023-03-19T04:31:46.288Z,0.00
2023-03-19T04:32:46.330Z,0.00
2023-03-19T04:33:46.298Z,0.00
2023-03-19T04:34:46.262Z,0.00
2023-03-19T04:35:46.316Z,0.00
2023-03-19T04:36:46.245Z,0.00
2023-03-19T04:37:46.243Z,0.00
2023-03-19T04:38:46.219Z,0.00
2023-03-19T04:39:46.218Z,0.00
2023-03-19T04:40:46.194Z,0.00
2023-03-19T04:41:46.221Z,0.00
2023-03-19T04:42:46.179Z,0.00
2023-03-19T04:43:46.184Z,0.00
2023-03-19T04:44:54.734Z,0.00
2023-03-19T04:45:47.812Z,0.00
2023-03-19T04:46:46.127Z,0.00
2023-03-19T04:47:46.156Z,0.00
2023-03-19T04:48:46.112Z,0.00
2023-03-19T04:49:46.100Z,0.00
2023-03-19T04:50:46.107Z,0.00
2023-03-19T04:51:46.064Z,0.00
2023-03-19T04:52:46.096Z,0.00
2023-03-19T04:53:46.081Z,0.00
2023-03-19T04:54:46.055Z,0.00
2023-03-19T04:55:46.044Z,0.00
2023-03-19T04:56:46.067Z,0.00
2023-03-19T04:57:45.961Z,1.00
2023-03-19T04:58:45.977Z,1.00
2023-03-19T04:59:45.936Z,1.00
2023-03-19T05:00:45.918Z,1.00
2023-03-19T05:01:45.969Z,2.00
2023-03-19T05:02:45.903Z,2.00
2023-03-19T05:03:45.920Z,2.00
2023-03-19T05:04:45.923Z,2.00
2023-03-19T05:05:45.876Z,3.00
2023-03-19T05:06:45.868Z,3.00
2023-03-19T05:07:45.873Z,5.00
2023-03-19T05:08:45.845Z,6.00
2023-03-19T05:09:45.841Z,7.00
2023-03-19T05:10:45.841Z,7.00
2023-03-19T05:11:45.810Z,7.00
2023-03-19T05:12:45.796Z,9.00
2023-03-19T05:13:45.805Z,9.00
2023-03-19T05:14:45.789Z,10.00
2023-03-19T05:15:45.866Z,11.00
2023-03-19T05:16:45.767Z,11.00
2023-03-19T05:17:45.759Z,12.00
2023-03-19T05:18:45.758Z,16.00
2023-03-19T05:19:45.805Z,15.00
2023-03-19T05:20:45.758Z,18.00
2023-03-19T05:21:45.707Z,18.00
2023-03-19T05:22:45.700Z,18.00
2023-03-19T05:23:45.688Z,19.00
2023-03-19T05:24:45.684Z,20.00
2023-03-19T05:25:45.669Z,22.00
2023-03-19T05:26:45.689Z,30.00
2023-03-19T05:27:45.661Z,28.00
2023-03-19T05:28:45.628Z,33.00
2023-03-19T05:29:45.645Z,39.00
2023-03-19T05:30:45.644Z,42.00
2023-03-19T05:31:45.602Z,44.00
2023-03-19T05:32:45.611Z,49.00
2023-03-19T05:33:45.588Z,49.00
2023-03-19T05:34:45.574Z,49.00
2023-03-19T05:35:45.671Z,48.00
2023-03-19T05:36:45.536Z,43.00
2023-03-19T05:37:45.553Z,42.00
2023-03-19T05:38:45.519Z,48.00
2023-03-19T05:39:45.521Z,47.00
2023-03-19T05:40:45.519Z,50.00
2023-03-19T05:41:45.497Z,51.00
2023-03-19T05:42:45.509Z,57.00
2023-03-19T05:43:45.493Z,61.00
2023-03-19T05:44:45.488Z,64.00
2023-03-19T05:45:45.497Z,64.00
2023-03-19T05:46:45.494Z,67.00
2023-03-19T05:47:45.461Z,74.00
2023-03-19T05:48:45.412Z,77.00
2023-03-19T05:49:45.432Z,88.00
2023-03-19T05:50:45.397Z,92.00
2023-03-19T05:51:45.389Z,104.00
2023-03-19T05:52:45.373Z,115.00
2023-03-19T05:53:45.399Z,128.00
2023-03-19T05:54:45.359Z,120.00
2023-03-19T05:55:45.407Z,122.00
2023-03-19T05:56:45.340Z,112.00
2023-03-19T05:57:45.336Z,118.00
2023-03-19T05:58:45.331Z,125.00
2023-03-19T05:59:45.330Z,128.00
2023-03-19T06:00:45.292Z,129.00
2023-03-19T06:01:45.319Z,143.00
2023-03-19T06:02:45.344Z,152.00
2023-03-19T06:03:45.260Z,147.00
2023-03-19T06:04:45.254Z,144.00
2023-03-19T06:05:45.277Z,164.00
2023-03-19T06:06:45.223Z,178.00
2023-03-19T06:07:45.206Z,188.00
2023-03-19T06:08:45.232Z,214.00
2023-03-19T06:09:45.200Z,246.00
2023-03-19T06:10:45.202Z,266.00
2023-03-19T06:11:45.189Z,286.00
2023-03-19T06:12:45.167Z,293.00
2023-03-19T06:13:45.160Z,273.00
2023-03-19T06:14:45.811Z,263.00
2023-03-19T06:15:45.201Z,258.00
2023-03-19T06:16:45.128Z,271.00
2023-03-19T06:17:45.119Z,286.00
2023-03-19T06:18:45.099Z,296.00
2023-03-19T06:19:45.097Z,301.00
2023-03-19T06:20:45.120Z,299.00
2023-03-19T06:21:45.090Z,305.00
2023-03-19T06:22:45.085Z,316.00
2023-03-19T06:23:45.052Z,343.00
2023-03-19T06:24:45.025Z,343.00
2023-03-19T06:25:45.047Z,312.00
2023-03-19T06:26:45.039Z,266.00
2023-03-19T06:27:45.029Z,260.00
2023-03-19T06:28:45.001Z,288.00
2023-03-19T06:29:44.993Z,326.00
2023-03-19T06:30:44.973Z,352.00
2023-03-19T06:31:45.111Z,358.00
2023-03-19T06:32:45.017Z,374.00
2023-03-19T06:33:44.947Z,381.00
2023-03-19T06:34:44.933Z,362.00
2023-03-19T06:35:44.984Z,331.00
2023-03-19T06:36:44.918Z,397.00
2023-03-19T06:37:44.921Z,437.00
2023-03-19T06:38:44.893Z,410.00
2023-03-19T06:39:44.905Z,376.00
2023-03-19T06:40:44.873Z,382.00
2023-03-19T06:41:44.904Z,422.00
2023-03-19T06:42:44.859Z,467.00
2023-03-19T06:43:44.857Z,503.00
2023-03-19T06:44:44.882Z,536.00
2023-03-19T06:45:44.918Z,572.00
2023-03-19T06:46:44.823Z,530.00
2023-03-19T06:47:44.839Z,486.00
2023-03-19T06:48:44.808Z,483.00
2023-03-19T06:49:44.780Z,498.00
2023-03-19T06:50:44.774Z,519.00
2023-03-19T06:51:44.779Z,538.00
2023-03-19T06:52:44.776Z,590.00
2023-03-19T06:53:44.759Z,565.00
2023-03-19T06:54:44.734Z,546.00
2023-03-19T06:55:44.729Z,523.00
2023-03-19T06:56:44.705Z,512.00
2023-03-19T06:57:44.697Z,494.00
2023-03-19T06:58:44.724Z,464.00
2023-03-19T06:59:44.678Z,431.00
2023-03-19T07:00:44.777Z,441.00
2023-03-19T07:01:44.659Z,425.00
2023-03-19T07:02:44.646Z,469.00
2023-03-19T07:03:44.719Z,520.00
2023-03-19T07:04:44.653Z,591.00
2023-03-19T07:05:44.626Z,595.00
2023-03-19T07:06:44.624Z,581.00
2023-03-19T07:07:44.589Z,601.00
2023-03-19T07:08:44.586Z,648.00
2023-03-19T07:09:44.588Z,670.00
2023-03-19T07:10:44.570Z,706.00
2023-03-19T07:11:44.546Z,717.00
2023-03-19T07:12:44.527Z,737.00
2023-03-19T07:13:44.536Z,751.00
2023-03-19T07:14:44.537Z,755.00
2023-03-19T07:15:44.561Z,750.00
2023-03-19T07:16:44.644Z,736.00
2023-03-19T07:17:44.491Z,793.00
2023-03-19T07:18:44.475Z,884.00
2023-03-19T07:19:44.479Z,877.00
2023-03-19T07:20:44.453Z,809.00
2023-03-19T07:21:44.444Z,748.00
2023-03-19T07:22:44.433Z,711.00
2023-03-19T07:23:44.415Z,656.00
2023-03-19T07:24:44.433Z,689.00
2023-03-19T07:25:44.407Z,761.00
2023-03-19T07:26:44.403Z,762.00
2023-03-19T07:27:44.371Z,880.00
2023-03-19T07:28:44.360Z,877.00
2023-03-19T07:29:44.352Z,845.00
2023-03-19T07:30:44.379Z,845.00
2023-03-19T07:31:44.419Z,967.00
2023-03-19T07:32:44.376Z,1041.00
2023-03-19T07:33:44.338Z,1086.00
2023-03-19T07:34:44.312Z,1120.00
2023-03-19T07:35:44.326Z,1156.00
2023-03-19T07:36:44.316Z,1123.00
2023-03-19T07:37:44.292Z,1148.00
2023-03-19T07:38:44.260Z,1085.00
2023-03-19T07:39:44.271Z,1112.00
2023-03-19T07:40:54.701Z,1091.00
2023-03-19T07:41:44.226Z,1030.00
2023-03-19T07:42:45.222Z,1026.00
2023-03-19T07:43:44.260Z,1010.00
2023-03-19T07:44:44.204Z,1053.00
2023-03-19T07:45:44.245Z,1051.00
2023-03-19T07:46:44.230Z,1054.00
2023-03-19T07:47:44.170Z,1097.00
2023-03-19T07:48:44.152Z,1138.00
2023-03-19T07:49:44.152Z,1210.00
2023-03-19T07:50:44.147Z,1296.00
2023-03-19T07:51:44.120Z,1314.00
2023-03-19T07:52:44.131Z,1414.00
2023-03-19T07:53:44.108Z,1631.00
2023-03-19T07:54:44.108Z,1268.00
2023-03-19T07:55:44.956Z,1482.00
2023-03-19T07:56:44.081Z,1699.00
2023-03-19T07:57:44.080Z,1244.00
2023-03-19T07:58:44.047Z,1471.00
2023-03-19T07:59:44.055Z,1666.00
2023-03-19T08:00:44.025Z,1187.00
2023-03-19T08:01:44.004Z,1327.00
2023-03-19T08:02:44.122Z,1539.00
2023-03-19T08:03:44.024Z,1267.00
2023-03-19T08:04:44.064Z,1179.00
2023-03-19T08:05:43.980Z,915.00
2023-03-19T08:06:44.136Z,1053.00
2023-03-19T08:07:44.004Z,1080.00
2023-03-19T08:08:43.982Z,663.00
2023-03-19T08:09:43.933Z,1264.00
2023-03-19T08:10:43.937Z,911.00
2023-03-19T08:11:43.904Z,1002.00
2023-03-19T08:12:43.905Z,1012.00
2023-03-19T08:13:43.939Z,1145.00
2023-03-19T08:14:43.879Z,1149.00
2023-03-19T08:15:43.880Z,1111.00
2023-03-19T08:16:44.026Z,1182.00
2023-03-19T08:17:43.848Z,1329.00
2023-03-19T08:18:43.851Z,1217.00
2023-03-19T08:19:43.826Z,1219.00
2023-03-19T08:20:43.820Z,1380.00
2023-03-19T08:21:43.812Z,1250.00
2023-03-19T08:22:43.808Z,1676.00
2023-03-19T08:23:43.801Z,1554.00
2023-03-19T08:24:43.806Z,1790.00
2023-03-19T08:25:43.764Z,1597.00
2023-03-19T08:26:43.745Z,2470.00
2023-03-19T08:27:43.740Z,1313.00
2023-03-19T08:28:43.761Z,2582.00
2023-03-19T08:29:43.720Z,2731.00
2023-03-19T08:30:43.730Z,2808.00
2023-03-19T08:31:43.726Z,2710.00
2023-03-19T08:32:43.754Z,2582.00
2023-03-19T08:33:43.671Z,2513.00
2023-03-19T08:34:43.673Z,1954.00
2023-03-19T08:35:43.724Z,2225.00
2023-03-19T08:36:43.639Z,1849.00
2023-03-19T08:37:43.650Z,2939.00
2023-03-19T08:38:43.625Z,3360.00
2023-03-19T08:39:43.650Z,2234.00
2023-03-19T08:40:43.601Z,2867.00
2023-03-19T08:41:43.613Z,3275.00
2023-03-19T08:42:45.192Z,6824.00
2023-03-19T08:43:43.578Z,5181.00
2023-03-19T08:44:43.563Z,1975.00
2023-03-19T08:45:43.717Z,2836.00
2023-03-19T08:46:43.584Z,2955.00
2023-03-19T08:47:43.547Z,9259.00
2023-03-19T08:48:43.544Z,5073.00
2023-03-19T08:49:43.510Z,7152.00
2023-03-19T08:50:43.515Z,3705.00
2023-03-19T08:51:43.494Z,3453.00
2023-03-19T08:52:43.494Z,4499.00
2023-03-19T08:53:43.508Z,5366.00
2023-03-19T08:54:43.457Z,3983.00
2023-03-19T08:55:43.461Z,2339.00
2023-03-19T08:56:43.428Z,7711.00
2023-03-19T08:57:43.424Z,8043.00
2023-03-19T08:58:43.448Z,7500.00
2023-03-19T08:59:43.423Z,8421.00
2023-03-19T09:00:43.387Z,13078.00
2023-03-19T09:01:43.399Z,14191.00
2023-03-19T09:02:43.365Z,7808.00
2023-03-19T09:03:43.365Z,9068.00
2023-03-19T09:04:43.421Z,9535.00
2023-03-19T09:05:43.331Z,10796.00
2023-03-19T09:06:43.314Z,9544.00
2023-03-19T09:07:43.319Z,5630.00
2023-03-19T09:08:43.325Z,4023.00
2023-03-19T09:09:43.336Z,7676.00
2023-03-19T09:10:43.286Z,7973.00
2023-03-19T09:11:43.272Z,5889.00
2023-03-19T09:12:43.270Z,5049.00
2023-03-19T09:13:43.264Z,4964.00
2023-03-19T09:14:43.285Z,5208.00
2023-03-19T09:15:43.264Z,8130.00
2023-03-19T09:16:43.220Z,6196.00
2023-03-19T09:17:43.241Z,4479.00
2023-03-19T09:18:43.207Z,3859.00
2023-03-19T09:19:43.180Z,4114.00
2023-03-19T09:20:43.192Z,5645.00
2023-03-19T09:21:43.157Z,5662.00
2023-03-19T09:22:43.151Z,5531.00
2023-03-19T09:23:43.148Z,5076.00
2023-03-19T09:24:43.152Z,4893.00
2023-03-19T09:25:43.120Z,4286.00
2023-03-19T09:26:43.129Z,3816.00
2023-03-19T09:27:43.145Z,3631.00
2023-03-19T09:28:43.121Z,3362.00
2023-03-19T09:29:43.081Z,3402.00
2023-03-19T09:30:43.077Z,3392.00
